logo
Search for airport 
image banner adimage banner adimage banner ad
image banner ad

PMDY - Henderson Fld

Located in Midway Atoll,

ICAO - MDY, IATA - MDY

Data provided by Airmate  

General information

Coordinates: N28°12'5" W177°22'53"
Elevation is 12 feet MSL.
Magnetic variation is 10° East
View others Airports in Midway Islands

Operational data

Special qualification required
Current time UTC:
Current local time:
Weather
TAF: PMDY 171729Z 1718/1818 17010KT P6SM VCSH FEW025 SCT040 AMD NOT SKED
View NOTAMs / SUP AIP / TFR affecting this airport [VIEW]
Communications frequencies: [VIEW]

Runways:

RWY identifierQFULength (ft)Width (ft)SurfaceLDA (ft)
0669°7800150ASPH7800
24249°7800150ASPH7400

Airport contact information

Address: Midway Atoll

Satellite view of PMDY